sensor_id;sensor_type;location;lat;lon;timestamp;temperature;humidity
14850;DHT22;7517;48.400;11.770;2024-01-07T00:01:51;9.10;78.70
14850;DHT22;7517;48.400;11.770;2024-01-07T00:04:18;9.10;78.70
14850;DHT22;7517;48.400;11.770;2024-01-07T00:06:47;9.10;78.50
14850;DHT22;7517;48.400;11.770;2024-01-07T00:09:15;9.10;78.50
14850;DHT22;7517;48.400;11.770;2024-01-07T00:11:42;9.10;78.50
14850;DHT22;7517;48.400;11.770;2024-01-07T00:14:09;9.10;78.40
14850;DHT22;7517;48.400;11.770;2024-01-07T00:16:36;9.10;78.40
14850;DHT22;7517;48.400;11.770;2024-01-07T00:19:03;9.10;78.50
14850;DHT22;7517;48.400;11.770;2024-01-07T00:21:31;9.10;78.50
14850;DHT22;7517;48.400;11.770;2024-01-07T00:23:59;9.10;78.60
14850;DHT22;7517;48.400;11.770;2024-01-07T00:26:26;9.10;78.60
14850;DHT22;7517;48.400;11.770;2024-01-07T00:28:53;9.10;78.60
14850;DHT22;7517;48.400;11.770;2024-01-07T00:31:20;9.10;78.50
14850;DHT22;7517;48.400;11.770;2024-01-07T00:33:47;9.10;78.40
14850;DHT22;7517;48.400;11.770;2024-01-07T00:36:14;9.10;78.40
14850;DHT22;7517;48.400;11.770;2024-01-07T00:38:41;9.00;78.20
14850;DHT22;7517;48.400;11.770;2024-01-07T00:41:10;9.10;78.30
14850;DHT22;7517;48.400;11.770;2024-01-07T00:43:38;9.10;78.40
14850;DHT22;7517;48.400;11.770;2024-01-07T00:46:06;9.00;78.40
14850;DHT22;7517;48.400;11.770;2024-01-07T00:48:33;9.00;78.40
14850;DHT22;7517;48.400;11.770;2024-01-07T00:50:59;9.00;78.20
14850;DHT22;7517;48.400;11.770;2024-01-07T00:53:27;9.00;78.20
14850;DHT22;7517;48.400;11.770;2024-01-07T00:55:54;9.00;78.30
14850;DHT22;7517;48.400;11.770;2024-01-07T00:58:22;9.00;78.50
14850;DHT22;7517;48.400;11.770;2024-01-07T01:00:50;9.00;78.50
14850;DHT22;7517;48.400;11.770;2024-01-07T01:03:19;9.00;78.40
14850;DHT22;7517;48.400;11.770;2024-01-07T01:05:46;9.10;78.70
14850;DHT22;7517;48.400;11.770;2024-01-07T01:08:13;9.00;78.70
14850;DHT22;7517;48.400;11.770;2024-01-07T01:10:41;8.90;78.70
14850;DHT22;7517;48.400;11.770;2024-01-07T01:13:09;9.00;78.80
14850;DHT22;7517;48.400;11.770;2024-01-07T01:15:37;9.00;78.80
14850;DHT22;7517;48.400;11.770;2024-01-07T01:18:05;9.00;78.80
14850;DHT22;7517;48.400;11.770;2024-01-07T01:20:32;9.00;78.90
14850;DHT22;7517;48.400;11.770;2024-01-07T01:22:59;9.10;79.10
14850;DHT22;7517;48.400;11.770;2024-01-07T01:25:26;9.00;78.90
14850;DHT22;7517;48.400;11.770;2024-01-07T01:27:55;9.00;78.90
14850;DHT22;7517;48.400;11.770;2024-01-07T01:30:22;9.00;78.90
14850;DHT22;7517;48.400;11.770;2024-01-07T01:32:51;9.00;78.70
14850;DHT22;7517;48.400;11.770;2024-01-07T01:35:18;9.00;78.70
14850;DHT22;7517;48.400;11.770;2024-01-07T01:37:45;9.00;78.80
14850;DHT22;7517;48.400;11.770;2024-01-07T01:40:12;8.90;79.00
14850;DHT22;7517;48.400;11.770;2024-01-07T01:42:43;8.90;78.90
14850;DHT22;7517;48.400;11.770;2024-01-07T01:45:10;8.90;78.80
14850;DHT22;7517;48.400;11.770;2024-01-07T01:47:37;8.90;78.80
14850;DHT22;7517;48.400;11.770;2024-01-07T01:50:08;8.90;78.80
14850;DHT22;7517;48.400;11.770;2024-01-07T01:52:37;9.00;78.90
14850;DHT22;7517;48.400;11.770;2024-01-07T01:55:05;8.90;79.00
14850;DHT22;7517;48.400;11.770;2024-01-07T01:57:34;8.90;79.00
14850;DHT22;7517;48.400;11.770;2024-01-07T02:00:02;8.90;78.90
14850;DHT22;7517;48.400;11.770;2024-01-07T02:02:30;8.90;79.00
14850;DHT22;7517;48.400;11.770;2024-01-07T02:04:59;8.90;79.10
14850;DHT22;7517;48.400;11.770;2024-01-07T02:07:30;8.90;79.00
14850;DHT22;7517;48.400;11.770;2024-01-07T02:09:59;8.40;78.70
14850;DHT22;7517;48.400;11.770;2024-01-07T02:12:26;8.90;78.90
14850;DHT22;7517;48.400;11.770;2024-01-07T02:14:54;8.90;78.70
14850;DHT22;7517;48.400;11.770;2024-01-07T02:17:21;8.90;78.60
14850;DHT22;7517;48.400;11.770;2024-01-07T02:19:48;8.90;78.60
14850;DHT22;7517;48.400;11.770;2024-01-07T02:22:15;8.80;78.80
14850;DHT22;7517;48.400;11.770;2024-01-07T02:24:43;8.80;78.80
14850;DHT22;7517;48.400;11.770;2024-01-07T02:27:11;8.80;78.60
14850;DHT22;7517;48.400;11.770;2024-01-07T02:29:38;8.80;78.40
14850;DHT22;7517;48.400;11.770;2024-01-07T02:32:06;8.80;78.30
14850;DHT22;7517;48.400;11.770;2024-01-07T02:34:33;8.70;78.30
14850;DHT22;7517;48.400;11.770;2024-01-07T02:37:00;8.80;78.70
14850;DHT22;7517;48.400;11.770;2024-01-07T02:39:27;8.70;78.90
14850;DHT22;7517;48.400;11.770;2024-01-07T02:41:55;8.70;79.00
14850;DHT22;7517;48.400;11.770;2024-01-07T02:44:22;8.60;79.00
14850;DHT22;7517;48.400;11.770;2024-01-07T02:46:49;8.60;79.00
14850;DHT22;7517;48.400;11.770;2024-01-07T02:49:16;8.60;79.00
14850;DHT22;7517;48.400;11.770;2024-01-07T02:51:44;8.60;79.10
14850;DHT22;7517;48.400;11.770;2024-01-07T02:54:14;8.60;79.00
14850;DHT22;7517;48.400;11.770;2024-01-07T02:56:42;8.50;79.00
14850;DHT22;7517;48.400;11.770;2024-01-07T02:59:10;8.50;79.00
14850;DHT22;7517;48.400;11.770;2024-01-07T03:01:37;8.50;79.00
14850;DHT22;7517;48.400;11.770;2024-01-07T03:04:07;8.50;78.90
14850;DHT22;7517;48.400;11.770;2024-01-07T03:06:34;8.50;78.90
14850;DHT22;7517;48.400;11.770;2024-01-07T03:09:01;8.40;78.90
14850;DHT22;7517;48.400;11.770;2024-01-07T03:11:29;8.40;79.10
14850;DHT22;7517;48.400;11.770;2024-01-07T03:13:56;8.40;79.10
14850;DHT22;7517;48.400;11.770;2024-01-07T03:16:25;8.40;79.30
14850;DHT22;7517;48.400;11.770;2024-01-07T03:18:53;8.40;79.40
14850;DHT22;7517;48.400;11.770;2024-01-07T03:21:21;8.30;79.40
14850;DHT22;7517;48.400;11.770;2024-01-07T03:23:50;8.30;79.40
14850;DHT22;7517;48.400;11.770;2024-01-07T03:26:19;8.30;79.40
14850;DHT22;7517;48.400;11.770;2024-01-07T03:28:46;8.30;79.40
14850;DHT22;7517;48.400;11.770;2024-01-07T03:31:14;8.30;79.80
14850;DHT22;7517;48.400;11.770;2024-01-07T03:33:43;8.30;80.20
14850;DHT22;7517;48.400;11.770;2024-01-07T03:36:12;8.30;80.30
14850;DHT22;7517;48.400;11.770;2024-01-07T03:38:41;8.20;79.60
14850;DHT22;7517;48.400;11.770;2024-01-07T03:41:08;8.20;79.70
14850;DHT22;7517;48.400;11.770;2024-01-07T03:43:35;8.20;79.90
14850;DHT22;7517;48.400;11.770;2024-01-07T03:46:02;8.20;80.00
14850;DHT22;7517;48.400;11.770;2024-01-07T03:48:29;8.20;79.90
14850;DHT22;7517;48.400;11.770;2024-01-07T03:50:58;8.20;79.90
14850;DHT22;7517;48.400;11.770;2024-01-07T03:53:25;8.20;80.10
14850;DHT22;7517;48.400;11.770;2024-01-07T03:55:52;8.20;80.10
14850;DHT22;7517;48.400;11.770;2024-01-07T03:58:19;8.20;80.10
14850;DHT22;7517;48.400;11.770;2024-01-07T04:00:46;8.20;80.20
14850;DHT22;7517;48.400;11.770;2024-01-07T04:03:13;8.20;80.20
14850;DHT22;7517;48.400;11.770;2024-01-07T04:05:40;8.20;80.20
14850;DHT22;7517;48.400;11.770;2024-01-07T04:08:11;8.20;80.20
14850;DHT22;7517;48.400;11.770;2024-01-07T04:10:38;8.10;80.00
14850;DHT22;7517;48.400;11.770;2024-01-07T04:13:05;8.10;80.00
14850;DHT22;7517;48.400;11.770;2024-01-07T04:15:32;8.10;80.10
14850;DHT22;7517;48.400;11.770;2024-01-07T04:18:01;8.10;80.10
14850;DHT22;7517;48.400;11.770;2024-01-07T04:20:29;8.10;80.20
14850;DHT22;7517;48.400;11.770;2024-01-07T04:22:56;8.10;80.20
14850;DHT22;7517;48.400;11.770;2024-01-07T04:25:25;8.10;80.60
14850;DHT22;7517;48.400;11.770;2024-01-07T04:27:52;8.10;80.20
14850;DHT22;7517;48.400;11.770;2024-01-07T04:30:19;8.10;80.10
14850;DHT22;7517;48.400;11.770;2024-01-07T04:32:46;8.00;80.10
14850;DHT22;7517;48.400;11.770;2024-01-07T04:35:14;8.00;80.20
14850;DHT22;7517;48.400;11.770;2024-01-07T04:37:42;8.00;80.30
14850;DHT22;7517;48.400;11.770;2024-01-07T04:40:10;8.00;80.30
14850;DHT22;7517;48.400;11.770;2024-01-07T04:42:39;8.00;80.30
14850;DHT22;7517;48.400;11.770;2024-01-07T04:45:07;8.00;81.00
14850;DHT22;7517;48.400;11.770;2024-01-07T04:47:34;8.00;80.30
14850;DHT22;7517;48.400;11.770;2024-01-07T04:50:02;8.00;80.30
14850;DHT22;7517;48.400;11.770;2024-01-07T04:52:30;8.00;80.30
14850;DHT22;7517;48.400;11.770;2024-01-07T04:54:57;8.00;80.30
14850;DHT22;7517;48.400;11.770;2024-01-07T04:57:25;8.00;80.30
14850;DHT22;7517;48.400;11.770;2024-01-07T04:59:53;8.00;80.30
14850;DHT22;7517;48.400;11.770;2024-01-07T05:02:20;8.00;80.20
14850;DHT22;7517;48.400;11.770;2024-01-07T05:04:48;8.00;80.20
14850;DHT22;7517;48.400;11.770;2024-01-07T05:07:15;7.90;80.20
14850;DHT22;7517;48.400;11.770;2024-01-07T05:09:42;7.90;80.20
14850;DHT22;7517;48.400;11.770;2024-01-07T05:12:10;7.90;80.20
14850;DHT22;7517;48.400;11.770;2024-01-07T05:14:37;8.00;80.30
14850;DHT22;7517;48.400;11.770;2024-01-07T05:17:06;7.90;80.20
14850;DHT22;7517;48.400;11.770;2024-01-07T05:19:33;7.90;80.20
14850;DHT22;7517;48.400;11.770;2024-01-07T05:22:00;7.80;80.30
14850;DHT22;7517;48.400;11.770;2024-01-07T05:24:27;7.80;81.00
14850;DHT22;7517;48.400;11.770;2024-01-07T05:26:55;7.80;80.30
14850;DHT22;7517;48.400;11.770;2024-01-07T05:29:22;7.80;80.20
14850;DHT22;7517;48.400;11.770;2024-01-07T05:31:49;7.80;80.20
14850;DHT22;7517;48.400;11.770;2024-01-07T05:34:17;7.80;80.30
14850;DHT22;7517;48.400;11.770;2024-01-07T05:36:44;7.80;80.30
14850;DHT22;7517;48.400;11.770;2024-01-07T05:39:12;7.80;80.40
14850;DHT22;7517;48.400;11.770;2024-01-07T05:41:39;7.80;80.50
14850;DHT22;7517;48.400;11.770;2024-01-07T05:44:06;7.80;80.40
14850;DHT22;7517;48.400;11.770;2024-01-07T05:46:34;7.80;80.40
14850;DHT22;7517;48.400;11.770;2024-01-07T05:49:04;7.80;80.30
14850;DHT22;7517;48.400;11.770;2024-01-07T05:51:33;7.80;80.20
14850;DHT22;7517;48.400;11.770;2024-01-07T05:54:00;7.80;80.10
14850;DHT22;7517;48.400;11.770;2024-01-07T05:56:26;7.80;80.10
14850;DHT22;7517;48.400;11.770;2024-01-07T05:58:53;7.80;80.00
14850;DHT22;7517;48.400;11.770;2024-01-07T06:01:20;7.80;80.00
14850;DHT22;7517;48.400;11.770;2024-01-07T06:03:48;7.70;79.90
14850;DHT22;7517;48.400;11.770;2024-01-07T06:06:15;7.70;79.90
14850;DHT22;7517;48.400;11.770;2024-01-07T06:08:44;7.70;79.90
14850;DHT22;7517;48.400;11.770;2024-01-07T06:11:11;7.70;79.80
14850;DHT22;7517;48.400;11.770;2024-01-07T06:13:44;7.70;79.80
14850;DHT22;7517;48.400;11.770;2024-01-07T06:16:11;7.70;79.80
14850;DHT22;7517;48.400;11.770;2024-01-07T06:18:39;7.60;79.60
14850;DHT22;7517;48.400;11.770;2024-01-07T06:21:06;7.60;79.60
14850;DHT22;7517;48.400;11.770;2024-01-07T06:23:34;7.60;79.60
14850;DHT22;7517;48.400;11.770;2024-01-07T06:26:04;7.60;79.70
14850;DHT22;7517;48.400;11.770;2024-01-07T06:28:32;7.60;79.80
14850;DHT22;7517;48.400;11.770;2024-01-07T06:30:59;7.60;80.00
14850;DHT22;7517;48.400;11.770;2024-01-07T06:33:29;7.60;80.00
14850;DHT22;7517;48.400;11.770;2024-01-07T06:35:56;7.60;80.00
14850;DHT22;7517;48.400;11.770;2024-01-07T06:38:23;7.60;80.00
14850;DHT22;7517;48.400;11.770;2024-01-07T06:40:51;7.60;79.90
14850;DHT22;7517;48.400;11.770;2024-01-07T06:43:21;7.60;79.90
14850;DHT22;7517;48.400;11.770;2024-01-07T06:45:48;7.70;80.00
14850;DHT22;7517;48.400;11.770;2024-01-07T06:48:15;7.60;79.90
14850;DHT22;7517;48.400;11.770;2024-01-07T06:50:42;7.60;80.00
14850;DHT22;7517;48.400;11.770;2024-01-07T06:53:09;7.60;80.50
14850;DHT22;7517;48.400;11.770;2024-01-07T06:55:36;7.60;79.80
14850;DHT22;7517;48.400;11.770;2024-01-07T06:58:04;7.60;79.80
14850;DHT22;7517;48.400;11.770;2024-01-07T07:00:32;7.60;79.70
14850;DHT22;7517;48.400;11.770;2024-01-07T07:03:00;7.50;79.50
14850;DHT22;7517;48.400;11.770;2024-01-07T07:05:27;7.50;79.40
14850;DHT22;7517;48.400;11.770;2024-01-07T07:07:54;7.50;79.30
14850;DHT22;7517;48.400;11.770;2024-01-07T07:10:21;7.50;79.30
14850;DHT22;7517;48.400;11.770;2024-01-07T07:12:48;7.50;79.40
14850;DHT22;7517;48.400;11.770;2024-01-07T07:15:16;7.50;79.40
14850;DHT22;7517;48.400;11.770;2024-01-07T07:17:44;7.40;79.40
14850;DHT22;7517;48.400;11.770;2024-01-07T07:20:12;7.40;79.40
14850;DHT22;7517;48.400;11.770;2024-01-07T07:22:39;7.40;79.40
14850;DHT22;7517;48.400;11.770;2024-01-07T07:25:07;7.40;79.40
14850;DHT22;7517;48.400;11.770;2024-01-07T07:27:34;7.40;79.40
14850;DHT22;7517;48.400;11.770;2024-01-07T07:30:04;7.40;79.50
14850;DHT22;7517;48.400;11.770;2024-01-07T07:32:32;7.40;79.40
14850;DHT22;7517;48.400;11.770;2024-01-07T07:35:00;7.30;79.30
14850;DHT22;7517;48.400;11.770;2024-01-07T07:37:28;7.30;79.30
14850;DHT22;7517;48.400;11.770;2024-01-07T07:39:55;7.30;79.40
14850;DHT22;7517;48.400;11.770;2024-01-07T07:42:22;7.30;79.50
14850;DHT22;7517;48.400;11.770;2024-01-07T07:44:49;7.30;79.70
14850;DHT22;7517;48.400;11.770;2024-01-07T07:47:17;7.30;79.60
14850;DHT22;7517;48.400;11.770;2024-01-07T07:49:46;7.30;79.40
14850;DHT22;7517;48.400;11.770;2024-01-07T07:52:14;7.30;79.30
14850;DHT22;7517;48.400;11.770;2024-01-07T07:54:41;7.30;79.30
14850;DHT22;7517;48.400;11.770;2024-01-07T07:57:08;7.20;79.20
14850;DHT22;7517;48.400;11.770;2024-01-07T07:59:36;7.20;79.20
14850;DHT22;7517;48.400;11.770;2024-01-07T08:02:03;7.20;79.10
14850;DHT22;7517;48.400;11.770;2024-01-07T08:04:30;7.20;78.90
14850;DHT22;7517;48.400;11.770;2024-01-07T08:06:57;7.20;78.80
14850;DHT22;7517;48.400;11.770;2024-01-07T08:09:27;7.10;78.70
14850;DHT22;7517;48.400;11.770;2024-01-07T08:11:54;7.10;78.70
14850;DHT22;7517;48.400;11.770;2024-01-07T08:14:21;7.10;78.80
14850;DHT22;7517;48.400;11.770;2024-01-07T08:16:48;7.10;78.90
14850;DHT22;7517;48.400;11.770;2024-01-07T08:19:16;7.10;79.00
14850;DHT22;7517;48.400;11.770;2024-01-07T08:21:43;7.10;79.10
14850;DHT22;7517;48.400;11.770;2024-01-07T08:24:10;7.10;79.10
14850;DHT22;7517;48.400;11.770;2024-01-07T08:26:39;7.10;79.20
14850;DHT22;7517;48.400;11.770;2024-01-07T08:29:06;7.10;79.10
14850;DHT22;7517;48.400;11.770;2024-01-07T08:31:34;7.10;79.00
14850;DHT22;7517;48.400;11.770;2024-01-07T08:34:01;7.10;79.10
14850;DHT22;7517;48.400;11.770;2024-01-07T08:36:30;7.10;79.30
14850;DHT22;7517;48.400;11.770;2024-01-07T08:38:57;7.10;79.40
14850;DHT22;7517;48.400;11.770;2024-01-07T08:41:25;7.10;79.60
14850;DHT22;7517;48.400;11.770;2024-01-07T08:43:54;6.80;79.50
14850;DHT22;7517;48.400;11.770;2024-01-07T08:46:22;7.20;79.80
14850;DHT22;7517;48.400;11.770;2024-01-07T08:48:49;7.20;80.00
14850;DHT22;7517;48.400;11.770;2024-01-07T08:51:17;7.50;80.10
14850;DHT22;7517;48.400;11.770;2024-01-07T08:53:44;7.30;80.00
14850;DHT22;7517;48.400;11.770;2024-01-07T08:56:12;8.50;80.50
14850;DHT22;7517;48.400;11.770;2024-01-07T08:58:40;7.40;79.90
14850;DHT22;7517;48.400;11.770;2024-01-07T09:01:09;7.40;79.80
14850;DHT22;7517;48.400;11.770;2024-01-07T09:03:36;7.50;79.50
14850;DHT22;7517;48.400;11.770;2024-01-07T09:06:04;7.50;79.50
14850;DHT22;7517;48.400;11.770;2024-01-07T09:08:31;7.50;79.50
14850;DHT22;7517;48.400;11.770;2024-01-07T09:10:58;7.60;79.40
14850;DHT22;7517;48.400;11.770;2024-01-07T09:13:27;7.60;79.20
14850;DHT22;7517;48.400;11.770;2024-01-07T09:15:54;7.50;79.20
14850;DHT22;7517;48.400;11.770;2024-01-07T09:18:25;7.70;79.20
14850;DHT22;7517;48.400;11.770;2024-01-07T09:20:52;7.60;79.10
14850;DHT22;7517;48.400;11.770;2024-01-07T09:23:19;7.60;79.10
14850;DHT22;7517;48.400;11.770;2024-01-07T09:25:46;7.60;78.90
14850;DHT22;7517;48.400;11.770;2024-01-07T09:28:14;7.60;78.70
14850;DHT22;7517;48.400;11.770;2024-01-07T09:30:42;7.60;78.60
14850;DHT22;7517;48.400;11.770;2024-01-07T09:33:09;7.60;78.60
14850;DHT22;7517;48.400;11.770;2024-01-07T09:35:37;7.60;78.80
14850;DHT22;7517;48.400;11.770;2024-01-07T09:38:04;7.60;79.10
14850;DHT22;7517;48.400;11.770;2024-01-07T09:40:32;7.60;79.30
14850;DHT22;7517;48.400;11.770;2024-01-07T09:42:59;7.60;79.30
14850;DHT22;7517;48.400;11.770;2024-01-07T09:45:27;7.60;79.40
14850;DHT22;7517;48.400;11.770;2024-01-07T09:47:56;7.60;79.50
14850;DHT22;7517;48.400;11.770;2024-01-07T09:50:23;7.70;79.40
14850;DHT22;7517;48.400;11.770;2024-01-07T09:52:56;7.60;79.30
14850;DHT22;7517;48.400;11.770;2024-01-07T09:55:27;7.70;79.40
14850;DHT22;7517;48.400;11.770;2024-01-07T09:57:59;7.70;79.50
14850;DHT22;7517;48.400;11.770;2024-01-07T10:00:27;7.70;79.50
14850;DHT22;7517;48.400;11.770;2024-01-07T10:02:55;7.70;79.50
14850;DHT22;7517;48.400;11.770;2024-01-07T10:05:23;7.70;79.30
14850;DHT22;7517;48.400;11.770;2024-01-07T10:07:50;7.70;79.10
14850;DHT22;7517;48.400;11.770;2024-01-07T10:10:21;7.70;79.90
14850;DHT22;7517;48.400;11.770;2024-01-07T10:12:48;7.70;79.00
14850;DHT22;7517;48.400;11.770;2024-01-07T10:15:18;7.70;78.80
14850;DHT22;7517;48.400;11.770;2024-01-07T10:17:48;7.70;79.50
14850;DHT22;7517;48.400;11.770;2024-01-07T10:20:16;7.70;78.50
14850;DHT22;7517;48.400;11.770;2024-01-07T10:22:46;7.70;78.70
14850;DHT22;7517;48.400;11.770;2024-01-07T10:25:16;7.70;78.70
14850;DHT22;7517;48.400;11.770;2024-01-07T10:27:46;7.70;78.60
14850;DHT22;7517;48.400;11.770;2024-01-07T10:30:16;7.70;78.30
14850;DHT22;7517;48.400;11.770;2024-01-07T10:32:44;7.70;78.50
14850;DHT22;7517;48.400;11.770;2024-01-07T10:35:13;7.70;78.60
14850;DHT22;7517;48.400;11.770;2024-01-07T10:37:41;7.70;78.30
14850;DHT22;7517;48.400;11.770;2024-01-07T10:40:11;7.70;78.20
14850;DHT22;7517;48.400;11.770;2024-01-07T10:42:40;7.60;78.20
14850;DHT22;7517;48.400;11.770;2024-01-07T10:45:12;7.60;78.30
14850;DHT22;7517;48.400;11.770;2024-01-07T10:47:40;7.60;78.10
14850;DHT22;7517;48.400;11.770;2024-01-07T10:50:15;7.60;78.10
14850;DHT22;7517;48.400;11.770;2024-01-07T10:52:49;7.60;78.10
14850;DHT22;7517;48.400;11.770;2024-01-07T10:55:18;7.60;78.00
14850;DHT22;7517;48.400;11.770;2024-01-07T10:57:50;7.50;77.90
14850;DHT22;7517;48.400;11.770;2024-01-07T11:00:19;7.50;77.70
14850;DHT22;7517;48.400;11.770;2024-01-07T11:02:55;7.50;77.50
14850;DHT22;7517;48.400;11.770;2024-01-07T11:05:33;8.70;78.50
14850;DHT22;7517;48.400;11.770;2024-01-07T11:08:15;7.60;78.00
14850;DHT22;7517;48.400;11.770;2024-01-07T11:10:51;8.30;78.60
14850;DHT22;7517;48.400;11.770;2024-01-07T11:13:34;7.40;78.00
14850;DHT22;7517;48.400;11.770;2024-01-07T11:16:05;7.40;78.10
14850;DHT22;7517;48.400;11.770;2024-01-07T11:18:38;7.40;78.20
14850;DHT22;7517;48.400;11.770;2024-01-07T11:21:06;7.40;77.70
14850;DHT22;7517;48.400;11.770;2024-01-07T11:23:34;7.40;77.80
14850;DHT22;7517;48.400;11.770;2024-01-07T11:26:05;7.30;78.00
14850;DHT22;7517;48.400;11.770;2024-01-07T11:28:50;7.40;78.20
14850;DHT22;7517;48.400;11.770;2024-01-07T11:31:20;7.30;77.70
14850;DHT22;7517;48.400;11.770;2024-01-07T11:33:51;7.40;77.80
14850;DHT22;7517;48.400;11.770;2024-01-07T11:36:20;7.40;77.50
14850;DHT22;7517;48.400;11.770;2024-01-07T11:38:48;7.20;77.40
14850;DHT22;7517;48.400;11.770;2024-01-07T11:41:20;7.20;77.40
14850;DHT22;7517;48.400;11.770;2024-01-07T11:43:55;7.20;77.60
14850;DHT22;7517;48.400;11.770;2024-01-07T11:46:26;7.10;77.30
14850;DHT22;7517;48.400;11.770;2024-01-07T11:48:54;7.10;77.50
14850;DHT22;7517;48.400;11.770;2024-01-07T11:51:24;7.10;77.70
14850;DHT22;7517;48.400;11.770;2024-01-07T11:53:52;7.00;77.60
14850;DHT22;7517;48.400;11.770;2024-01-07T11:56:19;7.00;77.90
14850;DHT22;7517;48.400;11.770;2024-01-07T11:58:47;7.00;78.00
14850;DHT22;7517;48.400;11.770;2024-01-07T12:01:15;7.00;77.80
14850;DHT22;7517;48.400;11.770;2024-01-07T12:03:44;7.10;77.70
14850;DHT22;7517;48.400;11.770;2024-01-07T12:06:12;7.00;77.60
14850;DHT22;7517;48.400;11.770;2024-01-07T12:08:40;7.00;77.80
14850;DHT22;7517;48.400;11.770;2024-01-07T12:11:08;7.00;77.70
14850;DHT22;7517;48.400;11.770;2024-01-07T12:13:36;6.90;77.50
14850;DHT22;7517;48.400;11.770;2024-01-07T12:16:04;6.90;77.70
14850;DHT22;7517;48.400;11.770;2024-01-07T12:18:32;6.90;77.80
14850;DHT22;7517;48.400;11.770;2024-01-07T12:21:01;6.90;77.80
14850;DHT22;7517;48.400;11.770;2024-01-07T12:23:28;6.80;77.90
14850;DHT22;7517;48.400;11.770;2024-01-07T12:25:55;6.80;78.00
14850;DHT22;7517;48.400;11.770;2024-01-07T12:28:34;6.80;78.10
14850;DHT22;7517;48.400;11.770;2024-01-07T12:31:05;6.80;78.30
14850;DHT22;7517;48.400;11.770;2024-01-07T12:33:32;6.80;78.40
14850;DHT22;7517;48.400;11.770;2024-01-07T12:36:01;6.80;78.40
14850;DHT22;7517;48.400;11.770;2024-01-07T12:38:30;6.80;78.30
14850;DHT22;7517;48.400;11.770;2024-01-07T12:40:57;6.80;78.40
14850;DHT22;7517;48.400;11.770;2024-01-07T12:43:25;6.80;78.50
14850;DHT22;7517;48.400;11.770;2024-01-07T12:45:52;6.80;78.60
14850;DHT22;7517;48.400;11.770;2024-01-07T12:48:21;6.80;78.70
14850;DHT22;7517;48.400;11.770;2024-01-07T12:50:48;6.80;78.50
14850;DHT22;7517;48.400;11.770;2024-01-07T12:53:16;7.00;78.30
14850;DHT22;7517;48.400;11.770;2024-01-07T12:55:44;6.80;78.00
14850;DHT22;7517;48.400;11.770;2024-01-07T12:58:11;6.80;78.00
14850;DHT22;7517;48.400;11.770;2024-01-07T13:00:38;6.80;78.30
14850;DHT22;7517;48.400;11.770;2024-01-07T13:03:06;6.80;79.00
14850;DHT22;7517;48.400;11.770;2024-01-07T13:05:37;6.80;78.20
14850;DHT22;7517;48.400;11.770;2024-01-07T13:08:04;6.80;78.30
14850;DHT22;7517;48.400;11.770;2024-01-07T13:10:33;6.80;78.10
14850;DHT22;7517;48.400;11.770;2024-01-07T13:13:00;6.80;78.10
14850;DHT22;7517;48.400;11.770;2024-01-07T13:15:28;6.80;78.00
14850;DHT22;7517;48.400;11.770;2024-01-07T13:17:56;6.80;77.90
14850;DHT22;7517;48.400;11.770;2024-01-07T13:20:23;6.80;78.00
14850;DHT22;7517;48.400;11.770;2024-01-07T13:22:50;6.90;78.30
14850;DHT22;7517;48.400;11.770;2024-01-07T13:25:17;6.80;78.00
14850;DHT22;7517;48.400;11.770;2024-01-07T13:27:46;6.80;77.90
14850;DHT22;7517;48.400;11.770;2024-01-07T13:30:13;6.80;77.90
14850;DHT22;7517;48.400;11.770;2024-01-07T13:32:42;6.80;77.90
14850;DHT22;7517;48.400;11.770;2024-01-07T13:35:09;6.80;78.00
14850;DHT22;7517;48.400;11.770;2024-01-07T13:37:38;6.80;77.70
14850;DHT22;7517;48.400;11.770;2024-01-07T13:40:09;6.80;77.80
14850;DHT22;7517;48.400;11.770;2024-01-07T13:42:38;6.80;77.90
14850;DHT22;7517;48.400;11.770;2024-01-07T13:45:08;6.80;78.10
14850;DHT22;7517;48.400;11.770;2024-01-07T13:47:35;6.80;78.10
14850;DHT22;7517;48.400;11.770;2024-01-07T13:50:03;6.80;78.10
14850;DHT22;7517;48.400;11.770;2024-01-07T13:52:32;6.80;78.10
14850;DHT22;7517;48.400;11.770;2024-01-07T13:54:59;6.80;77.90
14850;DHT22;7517;48.400;11.770;2024-01-07T13:57:26;6.80;77.80
14850;DHT22;7517;48.400;11.770;2024-01-07T13:59:53;6.80;77.80
14850;DHT22;7517;48.400;11.770;2024-01-07T14:02:22;6.70;77.60
14850;DHT22;7517;48.400;11.770;2024-01-07T14:04:49;6.70;77.70
14850;DHT22;7517;48.400;11.770;2024-01-07T14:07:17;6.80;77.90
14850;DHT22;7517;48.400;11.770;2024-01-07T14:09:44;6.70;77.50
14850;DHT22;7517;48.400;11.770;2024-01-07T14:12:11;6.70;77.60
14850;DHT22;7517;48.400;11.770;2024-01-07T14:14:38;6.60;77.80
14850;DHT22;7517;48.400;11.770;2024-01-07T14:17:05;6.60;77.70
14850;DHT22;7517;48.400;11.770;2024-01-07T14:19:34;6.60;77.60
14850;DHT22;7517;48.400;11.770;2024-01-07T14:22:01;6.60;77.80
14850;DHT22;7517;48.400;11.770;2024-01-07T14:24:28;6.60;77.80
14850;DHT22;7517;48.400;11.770;2024-01-07T14:26:56;6.60;77.50
14850;DHT22;7517;48.400;11.770;2024-01-07T14:29:23;6.60;77.50
14850;DHT22;7517;48.400;11.770;2024-01-07T14:31:50;6.60;77.50
14850;DHT22;7517;48.400;11.770;2024-01-07T14:34:17;6.60;77.20
14850;DHT22;7517;48.400;11.770;2024-01-07T14:36:47;6.50;77.10
14850;DHT22;7517;48.400;11.770;2024-01-07T14:39:14;6.50;77.30
14850;DHT22;7517;48.400;11.770;2024-01-07T14:41:42;6.50;77.30
14850;DHT22;7517;48.400;11.770;2024-01-07T14:44:09;6.40;77.20
14850;DHT22;7517;48.400;11.770;2024-01-07T14:46:37;6.40;77.30
14850;DHT22;7517;48.400;11.770;2024-01-07T14:49:04;6.40;77.30
14850;DHT22;7517;48.400;11.770;2024-01-07T14:51:34;6.40;77.30
14850;DHT22;7517;48.400;11.770;2024-01-07T14:54:03;6.30;77.10
14850;DHT22;7517;48.400;11.770;2024-01-07T14:56:31;6.30;77.60
14850;DHT22;7517;48.400;11.770;2024-01-07T14:58:59;6.30;76.90
14850;DHT22;7517;48.400;11.770;2024-01-07T15:01:26;6.20;77.10
14850;DHT22;7517;48.400;11.770;2024-01-07T15:03:56;6.20;77.30
14850;DHT22;7517;48.400;11.770;2024-01-07T15:06:23;6.20;77.30
14850;DHT22;7517;48.400;11.770;2024-01-07T15:08:52;6.20;77.30
14850;DHT22;7517;48.400;11.770;2024-01-07T15:11:20;6.20;77.30
14850;DHT22;7517;48.400;11.770;2024-01-07T15:13:47;6.40;77.70
14850;DHT22;7517;48.400;11.770;2024-01-07T15:17:08;7.60;78.80
14850;DHT22;7517;48.400;11.770;2024-01-07T15:19:38;6.20;77.60
14850;DHT22;7517;48.400;11.770;2024-01-07T15:24:36;6.10;77.50
14850;DHT22;7517;48.400;11.770;2024-01-07T15:27:04;6.10;77.60
14850;DHT22;7517;48.400;11.770;2024-01-07T15:29:31;6.00;77.80
14850;DHT22;7517;48.400;11.770;2024-01-07T15:31:59;6.00;77.90
14850;DHT22;7517;48.400;11.770;2024-01-07T15:34:27;6.00;77.90
14850;DHT22;7517;48.400;11.770;2024-01-07T15:36:57;6.00;78.00
14850;DHT22;7517;48.400;11.770;2024-01-07T15:39:25;6.00;77.80
14850;DHT22;7517;48.400;11.770;2024-01-07T15:41:59;6.00;77.80
14850;DHT22;7517;48.400;11.770;2024-01-07T15:44:28;6.00;77.70
14850;DHT22;7517;48.400;11.770;2024-01-07T15:46:56;6.00;77.80
14850;DHT22;7517;48.400;11.770;2024-01-07T15:49:24;6.00;77.90
14850;DHT22;7517;48.400;11.770;2024-01-07T15:51:51;6.00;77.90
14850;DHT22;7517;48.400;11.770;2024-01-07T15:54:18;5.90;77.90